createdAt,value
2018-08-14T00:00:29.548Z,101614.27
2018-08-14T00:02:59.634Z,101612.18
2018-08-14T00:05:29.124Z,101611.41
2018-08-14T00:07:58.719Z,101610.67
2018-08-14T00:10:35.066Z,101610.86
2018-08-14T00:13:04.036Z,101612.57
2018-08-14T00:15:34.276Z,101620.36
2018-08-14T00:18:03.816Z,101621.95
2018-08-14T00:20:34.055Z,101625.44
2018-08-14T00:23:02.991Z,101621.02
2018-08-14T00:25:31.983Z,101625.44
2018-08-14T00:28:01.015Z,101626.30
2018-08-14T00:30:30.736Z,101635.91
2018-08-14T00:33:00.652Z,101632.34
2018-08-14T00:35:30.219Z,101626.02
2018-08-14T00:37:59.459Z,101626.29
2018-08-14T00:40:29.850Z,101620.44
2018-08-14T00:43:00.377Z,101618.58
2018-08-14T00:45:30.288Z,101624.00
2018-08-14T00:47:59.431Z,101615.89
2018-08-14T00:50:29.027Z,101614.38
2018-08-14T00:52:58.730Z,101620.86
2018-08-14T00:55:29.132Z,101618.14
2018-08-14T00:57:58.351Z,101620.20
2018-08-14T01:00:30.123Z,101628.77
2018-08-14T01:02:59.959Z,101624.69
2018-08-14T01:05:29.775Z,101635.05
2018-08-14T01:07:58.952Z,101634.11
2018-08-14T01:10:28.570Z,101631.73
2018-08-14T01:12:58.591Z,101636.05
2018-08-14T01:15:28.725Z,101640.77
2018-08-14T01:17:58.525Z,101628.78
2018-08-14T01:20:28.795Z,101636.70
2018-08-14T01:22:59.667Z,101634.45
2018-08-14T01:25:28.847Z,101634.45
2018-08-14T01:27:58.288Z,101636.97
2018-08-14T01:30:31.289Z,101639.61
2018-08-14T01:33:00.112Z,101636.50
2018-08-14T01:35:30.671Z,101634.25
2018-08-14T01:38:00.255Z,101634.59
2018-08-14T01:40:30.203Z,101631.96
2018-08-14T01:42:59.263Z,101638.94
2018-08-14T01:45:29.096Z,101638.47
2018-08-14T01:47:58.549Z,101643.28
2018-08-14T01:50:28.356Z,101645.53
2018-08-14T01:52:57.372Z,101644.22
2018-08-14T01:55:26.799Z,101642.90
2018-08-14T01:57:56.244Z,101642.90
2018-08-14T02:00:26.475Z,101642.43
2018-08-14T02:19:40.703Z,101651.66
2018-08-14T02:22:10.384Z,101651.66
2018-08-14T02:24:39.395Z,101651.20
2018-08-14T02:27:08.595Z,101649.88
2018-08-14T02:29:38.100Z,101651.66
2018-08-14T02:32:07.691Z,101652.98
2018-08-14T02:34:36.592Z,101652.98
2018-08-14T02:37:05.584Z,101655.16
2018-08-14T02:39:35.196Z,101651.55
2018-08-14T02:42:05.196Z,101653.83
2018-08-14T02:44:34.788Z,101653.33
2018-08-14T02:47:04.519Z,101659.84
2018-08-14T02:49:34.299Z,101657.67
2018-08-14T02:52:03.450Z,101654.19
2018-08-14T02:54:32.551Z,101659.84
2018-08-14T02:57:02.151Z,101658.53
2018-08-14T02:59:31.803Z,101655.89
2018-08-14T03:02:01.629Z,101658.88
2018-08-14T03:04:31.175Z,101655.31
2018-08-14T03:07:00.281Z,101645.34
2018-08-14T03:09:29.987Z,101652.67
2018-08-14T03:11:59.080Z,101650.14
2018-08-14T03:14:28.600Z,101644.88
2018-08-14T03:16:58.324Z,101645.22
2018-08-14T03:19:27.427Z,101643.55
2018-08-14T03:21:56.844Z,101647.97
2018-08-14T03:24:26.008Z,101648.44
2018-08-14T03:26:55.088Z,101647.97
2018-08-14T03:29:24.038Z,101653.25
2018-08-14T03:31:53.079Z,101650.61
2018-08-14T03:34:23.159Z,101655.03
2018-08-14T03:36:52.173Z,101663.42
2018-08-14T03:39:21.088Z,101670.02
2018-08-14T03:41:50.083Z,101661.25
2018-08-14T03:44:19.175Z,101661.63
2018-08-14T03:46:48.589Z,101664.66
2018-08-14T03:49:17.551Z,101665.47
2018-08-14T03:51:46.713Z,101663.33
2018-08-14T03:54:15.767Z,101672.07
2018-08-14T03:56:45.491Z,101672.84
2018-08-14T03:59:14.476Z,101668.03
2018-08-14T04:01:43.868Z,101659.58
2018-08-14T04:04:13.543Z,101669.34
2018-08-14T04:06:43.348Z,101672.45
2018-08-14T04:09:12.967Z,101675.95
2018-08-14T04:11:42.760Z,101681.69
2018-08-14T04:14:11.592Z,101681.30
2018-08-14T04:16:40.704Z,101692.24
2018-08-14T04:19:10.672Z,101679.05
2018-08-14T04:21:39.632Z,101679.91
2018-08-14T04:24:08.608Z,101678.12
2018-08-14T04:26:37.681Z,101679.44
2018-08-14T04:29:07.599Z,101680.75
2018-08-14T04:31:37.147Z,101680.75
2018-08-14T04:34:06.459Z,101682.42
2018-08-14T04:36:35.573Z,101679.52
2018-08-14T04:39:06.934Z,101689.52
2018-08-14T04:41:36.295Z,101688.20
2018-08-14T04:44:06.152Z,101690.45
2018-08-14T04:46:35.295Z,101692.62
2018-08-14T04:49:04.260Z,101693.48
2018-08-14T04:51:33.173Z,101703.27
2018-08-14T04:54:02.391Z,101702.33
2018-08-14T04:56:31.412Z,101711.64
2018-08-14T04:59:00.871Z,101709.50
2018-08-14T05:01:30.467Z,101720.41
2018-08-14T05:03:59.467Z,101711.64
2018-08-14T05:06:28.471Z,101719.94
2018-08-14T05:08:57.367Z,101716.92
2018-08-14T05:11:26.428Z,101724.83
2018-08-14T05:13:56.373Z,101724.48
2018-08-14T05:16:25.532Z,101729.76
2018-08-14T05:18:55.310Z,101731.55
2018-08-14T05:21:24.787Z,101732.86
2018-08-14T05:23:53.863Z,101737.67
2018-08-14T05:26:22.880Z,101736.36
2018-08-14T05:28:52.445Z,101733.60
2018-08-14T05:31:21.472Z,101745.39
2018-08-14T05:33:50.540Z,101746.24
2018-08-14T05:36:19.359Z,101744.92
2018-08-14T05:38:48.572Z,101750.48
2018-08-14T05:58:01.752Z,101766.16
2018-08-14T06:00:31.256Z,101763.05
2018-08-14T06:03:00.939Z,101762.47
2018-08-14T06:05:30.016Z,101763.13
2018-08-14T06:07:59.620Z,101763.05
2018-08-14T06:10:29.211Z,101763.05
2018-08-14T06:12:58.891Z,101763.78
2018-08-14T06:15:28.078Z,101762.93
2018-08-14T06:17:57.144Z,101768.48
2018-08-14T06:20:26.795Z,101763.38
2018-08-14T06:22:55.848Z,101765.83
2018-08-14T06:25:25.003Z,101771.46
2018-08-14T06:27:54.060Z,101774.48
2018-08-14T06:30:23.848Z,101770.99
2018-08-14T06:32:52.987Z,101764.66
2018-08-14T06:35:22.052Z,101771.80
2018-08-14T06:37:51.552Z,101764.66
2018-08-14T06:40:21.935Z,101771.44
2018-08-14T06:42:51.467Z,101778.42
2018-08-14T06:45:20.491Z,101777.84
2018-08-14T06:47:49.359Z,101775.58
2018-08-14T06:50:19.760Z,101774.61
2018-08-14T06:52:48.694Z,101774.03
2018-08-14T06:55:18.390Z,101780.43
2018-08-14T06:57:47.878Z,101780.15
2018-08-14T07:00:18.409Z,101779.30
2018-08-14T07:02:48.188Z,101782.28
2018-08-14T07:05:17.917Z,101782.09
2018-08-14T07:07:47.003Z,101783.41
2018-08-14T07:10:16.661Z,101784.70
2018-08-14T07:12:46.165Z,101787.03
2018-08-14T07:15:18.697Z,101791.38
2018-08-14T07:17:47.856Z,101791.46
2018-08-14T07:20:16.948Z,101800.77
2018-08-14T07:22:46.297Z,101795.41
2018-08-14T07:25:16.716Z,101800.83
2018-08-14T07:27:45.768Z,101807.23
2018-08-14T07:30:17.620Z,101807.41
2018-08-14T07:32:46.975Z,101806.63
2018-08-14T07:35:16.683Z,101814.70
2018-08-14T07:37:46.097Z,101816.75
2018-08-14T07:40:15.243Z,101816.08
2018-08-14T07:42:44.199Z,101811.64
2018-08-14T07:45:17.700Z,101812.38
2018-08-14T07:47:47.214Z,101816.66
2018-08-14T07:50:16.587Z,101821.15
2018-08-14T07:52:46.020Z,101825.12
2018-08-14T07:55:14.973Z,101832.31
2018-08-14T07:57:44.897Z,101831.58
2018-08-14T08:00:17.989Z,101833.76
2018-08-14T08:02:48.507Z,101833.55
2018-08-14T08:05:17.782Z,101836.28
2018-08-14T08:07:47.027Z,101838.98
2018-08-14T08:10:17.766Z,101849.03
2018-08-14T08:12:46.852Z,101849.38
2018-08-14T08:15:17.264Z,101843.09
2018-08-14T08:17:46.783Z,101854.11
2018-08-14T08:20:26.423Z,101853.14
2018-08-14T08:22:56.337Z,101855.11
2018-08-14T08:25:26.456Z,101864.72
2018-08-14T08:27:55.657Z,101871.33
2018-08-14T08:30:24.975Z,101864.18
2018-08-14T08:32:54.472Z,101865.55
2018-08-14T08:35:23.776Z,101859.59
2018-08-14T08:37:53.815Z,101862.28
2018-08-14T08:40:22.982Z,101865.55
2018-08-14T08:42:52.063Z,101861.45
2018-08-14T08:45:20.935Z,101858.98
2018-08-14T08:47:50.611Z,101859.88
2018-08-14T08:50:19.733Z,101861.37
2018-08-14T08:52:48.719Z,101861.88
2018-08-14T08:55:18.907Z,101857.50
2018-08-14T08:57:47.859Z,101867.28
2018-08-14T09:00:17.686Z,101863.56
2018-08-14T09:02:46.644Z,101867.50
2018-08-14T09:05:17.227Z,101885.88
2018-08-14T09:07:46.731Z,101878.78
2018-08-14T09:10:15.800Z,101879.44
2018-08-14T09:12:44.779Z,101883.91
2018-08-14T09:15:14.931Z,101887.97
2018-08-14T09:17:44.033Z,101888.61
2018-08-14T09:20:14.517Z,101892.53
2018-08-14T09:22:43.649Z,101897.61
2018-08-14T09:25:14.511Z,101894.48
2018-08-14T09:27:45.447Z,101895.63
2018-08-14T09:30:16.684Z,101898.02
2018-08-14T09:32:45.800Z,101895.63
2018-08-14T09:35:16.323Z,101903.48
2018-08-14T09:37:45.364Z,101899.92
2018-08-14T09:40:16.137Z,101902.45
2018-08-14T09:42:45.218Z,101904.53
2018-08-14T09:45:14.648Z,101902.48
2018-08-14T09:47:43.874Z,101900.22
2018-08-14T09:50:16.907Z,101902.95
2018-08-14T09:52:46.755Z,101901.85
2018-08-14T09:55:16.862Z,101907.30
2018-08-14T09:57:46.376Z,101902.17
2018-08-14T10:01:29.944Z,101905.66
2018-08-14T10:04:00.195Z,101915.59
2018-08-14T10:06:34.743Z,101921.10
2018-08-14T10:09:04.268Z,101914.48
2018-08-14T10:11:34.032Z,101916.40
2018-08-14T10:14:03.822Z,101915.50
2018-08-14T10:16:33.391Z,101930.79
2018-08-14T10:19:02.545Z,101925.23
2018-08-14T10:21:31.843Z,101936.60
2018-08-14T10:24:01.272Z,101923.95
2018-08-14T10:26:31.519Z,101927.45
2018-08-14T10:29:00.670Z,101924.43
2018-08-14T10:31:30.079Z,101928.14
2018-08-14T10:33:59.831Z,101925.50
2018-08-14T10:36:28.893Z,101935.18
2018-08-14T10:38:58.032Z,101944.89
2018-08-14T10:41:26.967Z,101935.28
2018-08-14T10:43:55.937Z,101943.55
2018-08-14T10:46:24.933Z,101935.82
2018-08-14T10:48:54.731Z,101943.20
2018-08-14T10:51:24.551Z,101946.41
2018-08-14T10:53:53.680Z,101940.70
2018-08-14T10:56:22.684Z,101934.83
2018-08-14T10:58:52.575Z,101944.47
2018-08-14T11:01:21.468Z,101945.31
2018-08-14T11:03:50.479Z,101935.95
2018-08-14T11:06:20.499Z,101943.39
2018-08-14T11:08:50.771Z,101942.63
2018-08-14T11:11:20.772Z,101944.69
2018-08-14T11:13:49.992Z,101947.75
2018-08-14T11:16:19.056Z,101946.81
2018-08-14T11:18:49.978Z,101946.22
2018-08-14T11:21:20.303Z,101942.16
2018-08-14T11:23:50.008Z,101947.80
2018-08-14T11:26:20.263Z,101944.12
2018-08-14T11:28:50.069Z,101949.46
2018-08-14T11:31:20.179Z,101947.11
2018-08-14T11:33:49.266Z,101952.62
2018-08-14T11:36:18.756Z,101944.15
2018-08-14T11:38:47.776Z,101943.05
2018-08-14T11:41:18.365Z,101941.28
2018-08-14T11:43:47.356Z,101940.39
2018-08-14T11:46:16.381Z,101954.83
2018-08-14T11:48:45.384Z,101952.47
2018-08-14T11:51:14.363Z,101950.08
2018-08-14T11:53:43.403Z,101945.41
2018-08-14T11:56:12.503Z,101951.34
2018-08-14T11:58:41.656Z,101947.61
2018-08-14T12:01:11.537Z,101944.33
2018-08-14T12:03:40.448Z,101953.38
2018-08-14T12:06:09.588Z,101953.11
2018-08-14T12:08:38.448Z,101948.27
2018-08-14T12:11:07.604Z,101947.78
2018-08-14T12:13:36.639Z,101945.97
2018-08-14T12:16:05.729Z,101958.98
2018-08-14T12:18:34.759Z,101961.71
2018-08-14T12:21:04.555Z,101968.95
2018-08-14T12:23:34.155Z,101954.70
2018-08-14T12:26:06.219Z,101958.06
2018-08-14T12:28:35.327Z,101950.37
2018-08-14T12:31:04.340Z,101958.13
2018-08-14T12:33:33.471Z,101958.81
2018-08-14T12:36:03.025Z,101950.28
2018-08-14T12:38:33.155Z,101955.95
2018-08-14T12:41:02.999Z,101964.41
2018-08-14T12:43:31.939Z,101957.34
2018-08-14T12:46:01.044Z,101959.77
2018-08-14T12:48:30.138Z,101961.48
2018-08-14T12:50:59.026Z,101969.78
2018-08-14T12:53:28.247Z,101969.78
2018-08-14T12:55:57.834Z,101969.54
2018-08-14T12:58:26.941Z,101967.73
2018-08-14T13:00:55.924Z,101967.88
2018-08-14T13:03:26.001Z,101969.80
2018-08-14T13:05:55.040Z,101971.77
2018-08-14T13:08:24.054Z,101975.67
2018-08-14T13:10:54.235Z,101968.82
2018-08-14T13:13:23.865Z,101971.94
2018-08-14T13:15:53.386Z,101975.83
2018-08-14T13:18:23.389Z,101981.38
2018-08-14T13:20:53.095Z,101977.25
2018-08-14T13:23:22.200Z,101977.48
2018-08-14T13:25:51.299Z,101974.27
2018-08-14T13:28:20.428Z,101975.84
2018-08-14T13:30:49.592Z,101972.20
2018-08-14T13:33:19.205Z,101977.75
2018-08-14T13:35:48.914Z,101974.00
2018-08-14T13:38:17.797Z,101973.99
2018-08-14T13:40:47.647Z,101983.77
2018-08-14T13:43:17.539Z,101994.16
2018-08-14T13:45:46.498Z,101980.48
2018-08-14T13:48:15.518Z,101975.25
2018-08-14T13:50:44.500Z,101976.77
2018-08-14T13:53:14.028Z,101973.63
2018-08-14T13:55:43.089Z,101983.86
2018-08-14T13:58:12.126Z,101990.08
2018-08-14T14:00:41.211Z,101982.05
2018-08-14T14:03:10.400Z,101988.88
2018-08-14T14:05:39.500Z,101986.44
2018-08-14T14:08:08.487Z,101981.34
2018-08-14T14:10:37.371Z,101985.63
2018-08-14T14:13:06.895Z,101981.38
2018-08-14T14:15:35.980Z,101981.63
2018-08-14T14:18:04.983Z,101985.84
2018-08-14T14:20:34.384Z,101986.53
2018-08-14T14:23:03.467Z,101987.37
2018-08-14T14:25:32.469Z,101987.67
2018-08-14T14:28:02.128Z,101987.28
2018-08-14T14:30:31.211Z,102002.29
2018-08-14T14:33:00.313Z,101997.05
2018-08-14T14:35:29.771Z,102001.05
2018-08-14T14:37:58.901Z,102008.31
2018-08-14T14:40:29.062Z,102012.77
2018-08-14T14:43:00.432Z,102008.45
2018-08-14T14:45:30.112Z,102015.42
2018-08-14T14:47:59.216Z,102015.55
2018-08-14T14:50:28.698Z,102006.72
2018-08-14T14:52:57.863Z,102002.50
2018-08-14T14:55:27.052Z,102010.48
2018-08-14T14:57:56.971Z,102001.55
2018-08-14T15:00:30.971Z,102008.91
2018-08-14T15:03:01.126Z,102007.45
2018-08-14T15:05:30.115Z,102008.28
2018-08-14T15:08:00.348Z,102005.74
2018-08-14T15:10:30.070Z,102015.89
2018-08-14T15:12:59.671Z,102010.36
2018-08-14T15:15:29.431Z,102013.52
2018-08-14T15:17:58.463Z,102007.22
2018-08-14T15:20:28.385Z,102000.82
2018-08-14T15:22:59.155Z,102001.23
2018-08-14T15:25:28.649Z,102002.05
2018-08-14T15:29:07.982Z,102007.20
2018-08-14T15:31:39.054Z,102001.94
2018-08-14T15:34:09.812Z,102001.48
2018-08-14T15:36:39.331Z,102004.42
2018-08-14T15:39:11.506Z,102003.12
2018-08-14T15:41:40.903Z,101998.63
2018-08-14T15:44:10.928Z,102003.59
2018-08-14T15:46:40.415Z,102007.94
2018-08-14T15:49:09.901Z,102009.48
2018-08-14T15:51:38.923Z,102000.32
2018-08-14T15:54:08.815Z,102008.27
2018-08-14T15:56:40.852Z,102016.56
2018-08-14T15:59:10.246Z,102006.58
2018-08-14T16:01:39.817Z,102015.28
2018-08-14T16:04:10.028Z,102012.31
2018-08-14T16:06:39.151Z,102014.47
2018-08-14T16:09:25.012Z,102016.52
2018-08-14T16:11:54.001Z,102010.73
2018-08-14T16:14:23.063Z,102014.95
2018-08-14T16:16:52.146Z,102014.58
2018-08-14T16:19:21.113Z,102018.08
2018-08-14T16:21:50.438Z,102014.84
2018-08-14T16:24:19.503Z,102008.07
2018-08-14T16:26:48.611Z,102006.36
2018-08-14T16:29:18.427Z,102010.59
2018-08-14T16:31:47.607Z,101998.89
2018-08-14T16:34:17.072Z,101998.55
2018-08-14T16:36:46.395Z,101999.72
2018-08-14T16:39:15.503Z,101999.63
2018-08-14T16:41:44.604Z,102008.42
2018-08-14T16:44:14.215Z,101996.31
2018-08-14T16:46:44.035Z,101996.99
2018-08-14T16:49:13.631Z,101995.14
2018-08-14T16:51:43.139Z,101991.62
2018-08-14T16:54:12.134Z,101993.85
2018-08-14T16:56:41.225Z,101992.80
2018-08-14T16:59:10.323Z,101996.13
2018-08-14T17:01:40.249Z,101993.19
2018-08-14T17:04:10.131Z,101991.10
2018-08-14T17:06:39.050Z,101989.86
2018-08-14T17:09:08.930Z,101999.78
2018-08-14T17:11:38.279Z,102002.47
2018-08-14T17:14:07.464Z,101993.51
2018-08-14T17:16:36.825Z,101994.65
2018-08-14T17:19:06.472Z,101992.09
2018-08-14T17:21:33.975Z,102004.47
2018-08-14T17:24:03.027Z,102011.00
2018-08-14T17:26:31.973Z,102006.16
2018-08-14T17:29:01.967Z,102007.22
2018-08-14T17:31:30.900Z,102004.36
2018-08-14T17:34:00.899Z,102011.25
2018-08-14T17:36:30.073Z,102010.77
2018-08-14T17:38:59.689Z,102017.13
2018-08-14T17:41:29.888Z,102009.31
2018-08-14T17:43:58.768Z,102008.28
2018-08-14T17:46:29.098Z,102005.42
2018-08-14T17:48:58.159Z,102005.63
2018-08-14T17:51:27.193Z,102000.79
2018-08-14T17:53:56.684Z,102000.08
2018-08-14T17:56:26.144Z,102005.38
2018-08-14T17:58:55.197Z,101993.29
2018-08-14T18:01:24.707Z,101995.94
2018-08-14T18:03:54.568Z,101996.32
2018-08-14T18:06:24.092Z,101997.23
2018-08-14T18:08:53.060Z,102001.55
2018-08-14T18:11:22.156Z,102003.67
2018-08-14T18:13:51.649Z,102000.29
2018-08-14T18:16:20.671Z,102001.17
2018-08-14T18:18:50.399Z,102005.08
2018-08-14T18:21:19.884Z,102014.84
2018-08-14T18:23:48.796Z,102002.28
2018-08-14T18:26:17.815Z,102001.55
2018-08-14T18:28:46.681Z,102007.31
2018-08-14T18:31:15.652Z,101998.72
2018-08-14T18:33:45.146Z,102008.83
2018-08-14T18:36:14.086Z,102013.73
2018-08-14T18:38:43.866Z,102013.00
2018-08-14T18:41:13.058Z,102016.12
2018-08-14T18:43:42.131Z,102019.34
2018-08-14T18:46:11.192Z,102016.55
2018-08-14T18:48:40.607Z,102024.30
2018-08-14T18:51:10.219Z,102026.95
2018-08-14T18:53:39.214Z,102019.95
2018-08-14T18:56:08.631Z,102022.59
2018-08-14T18:58:37.598Z,102025.75
2018-08-14T19:01:07.423Z,102033.03
2018-08-14T19:03:36.504Z,102030.66
2018-08-14T19:06:05.595Z,102030.78
2018-08-14T19:08:35.115Z,102025.58
2018-08-14T19:11:04.592Z,102038.52
2018-08-14T19:13:33.977Z,102036.55
2018-08-14T19:16:02.900Z,102043.16
2018-08-14T19:18:31.903Z,102035.06
2018-08-14T19:21:00.998Z,102032.15
2018-08-14T19:23:30.620Z,102038.67
2018-08-14T19:26:00.679Z,102039.53
2018-08-14T19:28:29.612Z,102031.41
2018-08-14T19:30:58.679Z,102040.08
2018-08-14T19:33:27.498Z,102040.58
2018-08-14T19:35:56.551Z,102044.43
2018-08-14T19:38:26.078Z,102038.87
2018-08-14T19:40:55.965Z,102044.66
2018-08-14T19:43:25.739Z,102040.77
2018-08-14T19:45:54.848Z,102047.02
2018-08-14T19:48:23.748Z,102045.78
2018-08-14T19:50:52.835Z,102049.58
2018-08-14T19:53:21.778Z,102056.66
2018-08-14T19:55:50.711Z,102056.77
2018-08-14T19:58:19.695Z,102052.41
2018-08-14T20:00:49.487Z,102054.86
2018-08-14T20:03:18.511Z,102053.19
2018-08-14T20:05:48.156Z,102068.64
2018-08-14T20:08:17.727Z,102059.32
2018-08-14T20:10:46.790Z,102066.75
2018-08-14T20:13:16.868Z,102054.97
2018-08-14T20:15:51.133Z,102064.52
2018-08-14T20:18:20.751Z,102062.34
2018-08-14T20:20:49.647Z,102064.88
2018-08-14T20:23:19.348Z,102066.20
2018-08-14T20:25:48.256Z,102063.55
2018-08-14T20:28:19.119Z,102063.73
2018-08-14T20:30:48.172Z,102069.80
2018-08-14T20:33:17.209Z,102067.70
2018-08-14T20:35:46.272Z,102063.73
2018-08-14T20:38:15.910Z,102055.46
2018-08-14T20:40:44.835Z,102068.67
2018-08-14T20:43:13.846Z,102065.06
2018-08-14T20:45:42.767Z,102067.81
2018-08-14T20:48:11.859Z,102065.64
2018-08-14T20:50:41.192Z,102060.19
2018-08-14T20:53:10.232Z,102053.77
2018-08-14T20:55:39.252Z,102053.38
2018-08-14T20:58:08.211Z,102054.59
2018-08-14T21:00:37.356Z,102052.53
2018-08-14T21:03:06.436Z,102045.92
2018-08-14T21:05:35.553Z,102046.03
2018-08-14T21:08:04.691Z,102050.19
2018-08-14T21:10:33.759Z,102046.69
2018-08-14T21:13:02.833Z,102046.22
2018-08-14T21:15:37.708Z,102045.30
2018-08-14T21:18:06.752Z,102046.69
2018-08-14T21:20:35.947Z,102050.77
2018-08-14T21:23:06.027Z,102045.56
2018-08-14T21:25:35.607Z,102047.34
2018-08-14T21:28:04.567Z,102051.69
2018-08-14T21:30:34.616Z,102055.27
2018-08-14T21:33:04.195Z,102049.70
2018-08-14T21:35:33.305Z,102049.23
2018-08-14T21:38:03.104Z,102057.73
2018-08-14T21:40:32.728Z,102063.87
2018-08-14T21:43:03.043Z,102057.34
2018-08-14T21:45:32.181Z,102066.05
2018-08-14T21:48:01.163Z,102061.31
2018-08-14T21:50:30.239Z,102060.09
2018-08-14T21:52:59.623Z,102064.63
2018-08-14T21:55:28.597Z,102059.81
2018-08-14T21:57:57.705Z,102058.57
2018-08-14T22:00:37.735Z,102060.36
2018-08-14T22:03:06.688Z,102057.33
2018-08-14T22:05:35.670Z,102056.01
2018-08-14T22:08:05.168Z,102055.27
2018-08-14T22:10:34.160Z,102055.05
2018-08-14T22:13:03.564Z,102046.47
2018-08-14T22:15:33.924Z,102047.04
2018-08-14T22:18:03.591Z,102041.48
2018-08-14T22:20:32.538Z,102035.73
2018-08-14T22:23:01.480Z,102035.06
2018-08-14T22:25:30.527Z,102033.28
2018-08-14T22:28:02.046Z,102046.94
2018-08-14T22:30:32.563Z,102035.92
2018-08-14T22:33:01.638Z,102038.56
2018-08-14T22:35:32.252Z,102035.17
2018-08-14T22:38:01.643Z,102034.31
2018-08-14T22:40:31.129Z,102045.34
2018-08-14T22:43:00.197Z,102036.49
2018-08-14T22:45:29.088Z,102041.30
2018-08-14T22:47:57.916Z,102044.69
2018-08-14T22:50:27.488Z,102045.16
2018-08-14T22:52:56.592Z,102052.22
2018-08-14T22:55:26.219Z,102037.70
2018-08-14T22:57:56.467Z,102039.02
2018-08-14T23:00:25.503Z,102043.95
2018-08-14T23:02:54.990Z,102034.31
2018-08-14T23:05:23.968Z,102035.17
2018-08-14T23:07:53.327Z,102039.59
2018-08-14T23:10:22.439Z,102041.30
2018-08-14T23:12:51.413Z,102040.81
2018-08-14T23:15:20.373Z,102048.84
2018-08-14T23:17:49.483Z,102043.55
2018-08-14T23:20:18.379Z,102035.53
2018-08-14T23:22:47.747Z,102029.50
2018-08-14T23:25:17.107Z,102033.00
2018-08-14T23:27:47.007Z,102034.70
2018-08-14T23:30:16.447Z,102031.56
2018-08-14T23:32:45.756Z,102031.56
2018-08-14T23:35:14.815Z,102036.09
2018-08-14T23:37:43.791Z,102043.55
2018-08-14T23:40:14.015Z,102033.56
2018-08-14T23:42:43.166Z,102037.81
2018-08-14T23:45:12.307Z,102037.53
2018-08-14T23:47:41.462Z,102036.39
2018-08-14T23:50:11.829Z,102034.68
2018-08-14T23:52:41.899Z,102039.39
2018-08-14T23:55:11.522Z,102031.09
2018-08-14T23:57:41.103Z,102038.65
